Mount Carmel, North Dakota
Current Conditions -  °F | °C
As of 12:55 PM on Sunday 23 Nov 2014 (Local Time) from KD55 Reporting Station
Haze Haze  
Wind Chill: 11°   Ceiling: 400
Heat Index: 23°   Visibility: 2.5mi
Dew Point: 19°   Wind: 14mph
Humidity: 86%   Direction: 350°N
Pressure: 29.44"   Gusts: 20mph
Location:  48.8344°N, 98.3538°W
Report Text: KD55 231855Z AUTO 35012G17KT 2 1/2SM BR OVC004 M05/M07 A2944 RMK AO2 P0001
Loading
Personal Weather Stations






























Interactive Weather Map New forecast layout! Learn more

10-Day Weather Forecast

Advertisements
Track Severe Weather on mobile